Time;durP1;ratioP1;P1;durP2;ratioP2;P2;SDS_P1;SDS_P2;PMS_P1;PMS_P2;Temp;Humidity;BMP_temperature;BMP_pressure;BME280_temperature;BME280_humidity;BME280_pressure;Samples;Min_cycle;Max_cycle;Signal;HPM_P1;HPM_P2
2023/10/09 00:00:50;;;;;;;5.38;1.83;;;;;;;17.29;53.27;101933.53;5048115;27;99356;-76
2023/10/09 00:03:17;;;;;;;4.47;1.50;;;;;;;17.19;55.22;101917.06;5050741;27;96959;-77
2023/10/09 00:05:46;;;;;;;4.50;2.00;;;;;;;16.91;56.45;101904.06;5052843;27;96828;-77
2023/10/09 00:08:16;;;;;;;5.10;2.00;;;;;;;16.91;57.72;101900.50;5049847;27;101548;-77
2023/10/09 00:10:49;;;;;;;3.90;1.70;;;;;;;16.86;58.23;101903.41;5050811;27;99973;-78
2023/10/09 00:13:15;;;;;;;5.90;2.03;;;;;;;16.66;59.05;101906.03;5046816;27;96873;-77
2023/10/09 00:15:43;;;;;;;5.70;1.92;;;;;;;16.28;58.75;101902.25;5041703;27;97114;-77
2023/10/09 00:18:12;;;;;;;5.60;1.70;;;;;;;16.25;58.05;101895.25;5048156;27;99352;-78
2023/10/09 00:20:42;;;;;;;1.92;1.50;;;;;;;16.32;57.52;101893.22;5051530;27;98812;-78
2023/10/09 00:23:15;;;;;;;5.72;1.60;;;;;;;16.34;58.89;101888.69;5051060;27;98092;-80
2023/10/09 00:26:06;;;;;;;3.63;2.10;;;;;;;16.37;61.26;101890.34;5049238;27;96773;-80
2023/10/09 00:28:34;;;;;;;6.13;1.75;;;;;;;16.42;62.39;101875.88;5048426;27;98904;-79
2023/10/09 00:31:04;;;;;;;4.00;1.98;;;;;;;16.64;62.40;101876.75;5051984;27;102563;-79
2023/10/09 00:33:32;;;;;;;4.07;1.98;;;;;;;16.39;62.84;101873.34;5050514;27;96765;-79
2023/10/09 00:36:09;;;;;;;4.28;1.65;;;;;;;16.33;62.56;101870.94;5050441;27;97449;-79
2023/10/09 00:38:38;;;;;;;3.63;1.98;;;;;;;16.23;63.31;101869.56;5047297;27;99154;-79
2023/10/09 00:41:10;;;;;;;5.43;2.05;;;;;;;16.38;62.26;101854.75;5052145;27;99747;-80
2023/10/09 00:43:37;;;;;;;3.65;2.00;;;;;;;16.29;63.87;101858.66;5051164;27;97309;-80
2023/10/09 00:46:14;;;;;;;3.63;1.75;;;;;;;16.71;62.72;101846.19;5051223;27;97057;-80
2023/10/09 00:48:41;;;;;;;3.28;1.85;;;;;;;16.31;63.50;101855.00;5048966;27;100697;-79
2023/10/09 00:51:16;;;;;;;3.60;2.10;;;;;;;16.26;64.32;101851.66;5050944;27;99289;-79
2023/10/09 00:53:48;;;;;;;5.65;2.10;;;;;;;16.31;64.35;101836.31;5047012;27;97056;-80
2023/10/09 00:56:28;;;;;;;4.95;2.10;;;;;;;16.35;64.50;101831.72;5052728;27;96994;-80
2023/10/09 00:59:00;;;;;;;4.22;1.95;;;;;;;16.38;64.38;101830.72;5047407;27;99165;-78
2023/10/09 01:01:34;;;;;;;4.45;1.73;;;;;;;16.43;64.07;101824.25;5050196;27;98643;-78
2023/10/09 01:04:06;;;;;;;4.70;2.03;;;;;;;16.38;64.10;101825.41;5051327;27;99441;-79
2023/10/09 01:06:42;;;;;;;5.28;2.00;;;;;;;16.11;64.46;101828.28;5046006;27;97704;-79
2023/10/09 01:09:12;;;;;;;4.75;1.88;;;;;;;16.11;64.63;101809.63;5051407;27;99199;-79
2023/10/09 01:11:48;;;;;;;3.15;1.88;;;;;;;16.34;64.79;101800.66;5049320;27;101322;-79
2023/10/09 01:14:14;;;;;;;5.78;2.20;;;;;;;16.06;66.39;101797.41;5051673;27;96831;-79
2023/10/09 01:16:42;;;;;;;4.75;2.10;;;;;;;16.07;66.81;101789.38;5048910;27;96772;-79
2023/10/09 01:19:20;;;;;;;4.05;2.38;;;;;;;16.25;66.50;101795.72;5049463;27;99519;-79
2023/10/09 01:21:47;;;;;;;5.63;2.30;;;;;;;15.93;68.00;101792.59;5051760;27;98835;-79
2023/10/09 01:24:19;;;;;;;3.03;1.80;;;;;;;16.00;67.72;101782.56;5047453;27;96899;-80
2023/10/09 01:26:46;;;;;;;4.38;2.55;;;;;;;16.27;66.49;101772.53;5050029;27;97543;-78
2023/10/09 01:29:16;;;;;;;7.03;2.15;;;;;;;16.25;66.02;101755.72;5052219;27;101262;-79
2023/10/09 01:31:51;;;;;;;4.57;2.10;;;;;;;15.84;67.59;101744.13;5052761;27;98830;-79
2023/10/09 01:34:18;;;;;;;5.97;2.13;;;;;;;16.01;67.61;101736.31;5050209;27;96792;-78
2023/10/09 01:36:48;;;;;;;4.95;2.15;;;;;;;16.05;67.69;101732.56;5046044;27;97538;-78
2023/10/09 01:39:23;;;;;;;3.38;2.17;;;;;;;16.06;67.96;101717.44;5045043;27;101342;-79
2023/10/09 01:41:52;;;;;;;3.33;2.08;;;;;;;15.86;68.82;101704.97;5039691;27;97963;-78
2023/10/09 01:44:18;;;;;;;5.43;2.33;;;;;;;15.71;68.76;101700.25;5048885;27;97151;-80
2023/10/09 01:46:47;;;;;;;6.95;2.38;;;;;;;15.93;69.55;101690.44;5051026;27;96841;-79
2023/10/09 01:49:21;;;;;;;5.72;2.25;;;;;;;16.06;68.85;101685.44;5052231;27;101686;-79
2023/10/09 01:51:48;;;;;;;5.10;2.40;;;;;;;15.58;70.42;101672.41;5041703;27;102028;-79
2023/10/09 01:54:33;;;;;;;7.53;2.75;;;;;;;15.76;70.17;101676.94;5051163;27;97048;-79
2023/10/09 01:57:05;;;;;;;4.57;2.28;;;;;;;15.78;70.20;101683.97;5045374;27;96883;-78
2023/10/09 01:59:31;;;;;;;5.30;2.13;;;;;;;15.73;70.19;101682.44;5047952;27;98193;-80
2023/10/09 02:01:58;;;;;;;9.98;2.75;;;;;;;15.71;69.60;101681.59;5050498;27;98091;-78
2023/10/09 02:04:25;;;;;;;4.60;2.33;;;;;;;15.73;70.20;101671.75;5044903;27;97046;-81
2023/10/09 02:06:52;;;;;;;8.27;2.33;;;;;;;15.78;69.75;101659.09;5043882;27;97207;-80
2023/10/09 02:09:22;;;;;;;6.90;2.15;;;;;;;15.62;70.52;101652.72;5050696;27;99085;-79
2023/10/09 02:11:51;;;;;;;4.65;2.33;;;;;;;15.70;70.16;101666.53;5048000;27;99242;-79
2023/10/09 02:14:20;;;;;;;4.95;2.30;;;;;;;15.78;70.20;101669.75;5050466;27;96636;-80
2023/10/09 02:17:02;;;;;;;4.43;2.15;;;;;;;15.83;69.81;101665.97;5052283;27;96966;-80
2023/10/09 02:19:33;;;;;;;8.57;2.58;;;;;;;15.87;69.19;101674.72;5049665;27;98912;-79
2023/10/09 02:22:01;;;;;;;8.45;2.63;;;;;;;15.86;69.41;101686.31;5049747;27;99928;-79
2023/10/09 02:24:28;;;;;;;8.40;2.60;;;;;;;15.58;70.92;101670.59;5048090;27;97168;-79
2023/10/09 02:27:07;;;;;;;10.95;2.90;;;;;;;15.92;69.74;101649.59;5052447;27;97112;-79
2023/10/09 02:29:38;;;;;;;8.27;2.42;;;;;;;15.76;69.38;101647.63;5051087;27;100167;-79
2023/10/09 02:32:13;;;;;;;5.32;2.45;;;;;;;15.79;69.57;101663.50;5051799;27;101828;-79
2023/10/09 02:34:40;;;;;;;7.50;2.67;;;;;;;15.61;70.75;101672.28;5050059;27;96731;-78
2023/10/09 02:37:11;;;;;;;15.57;3.25;;;;;;;15.89;70.70;101673.69;5050727;27;96827;-78
2023/10/09 02:39:43;;;;;;;6.00;2.90;;;;;;;15.74;71.69;101685.03;5050342;27;99304;-78
2023/10/09 02:42:20;;;;;;;5.43;2.80;;;;;;;15.77;72.38;101679.56;5047182;27;98874;-79
2023/10/09 02:44:49;;;;;;;7.53;2.92;;;;;;;15.80;71.29;101665.25;5042279;27;96784;-79
2023/10/09 02:47:20;;;;;;;5.95;2.63;;;;;;;15.84;71.06;101653.50;5049722;27;97334;-78
2023/10/09 02:49:49;;;;;;;7.88;2.33;;;;;;;15.90;71.27;101623.94;5042615;27;98930;-79
2023/10/09 02:52:18;;;;;;;3.42;2.53;;;;;;;15.70;71.63;101613.25;5047293;27;99534;-79
2023/10/09 02:54:47;;;;;;;8.50;2.65;;;;;;;15.23;73.42;101615.25;5046761;27;97175;-78
2023/10/09 02:57:21;;;;;;;7.50;3.38;;;;;;;15.41;73.74;101622.47;5050261;27;96792;-78
2023/10/09 02:59:51;;;;;;;5.50;2.63;;;;;;;15.28;74.40;101613.25;5045205;27;98969;-79
2023/10/09 03:02:18;;;;;;;4.03;2.92;;;;;;;15.57;74.08;101612.06;5043697;27;97774;-79
2023/10/09 03:04:44;;;;;;;8.93;3.35;;;;;;;15.61;73.69;101603.88;5043954;27;96874;-79
2023/10/09 03:07:13;;;;;;;4.55;3.10;;;;;;;15.87;71.99;101616.94;5043580;27;97439;-78
2023/10/09 03:09:40;;;;;;;6.25;2.50;;;;;;;15.57;72.86;101609.38;5047573;27;99289;-81
2023/10/09 03:12:09;;;;;;;8.85;3.22;;;;;;;15.77;72.23;101596.06;5059420;27;99163;-80
2023/10/09 03:14:38;;;;;;;5.20;2.75;;;;;;;15.75;72.85;101584.66;5057198;27;98837;-81
2023/10/09 03:17:07;;;;;;;5.55;2.90;;;;;;;15.97;71.49;101580.06;5057434;27;96783;-81
2023/10/09 03:19:37;;;;;;;7.43;3.00;;;;;;;15.81;72.15;101573.72;5055080;27;99642;-81
2023/10/09 03:22:03;;;;;;;5.40;3.33;;;;;;;15.67;72.88;101566.31;5057940;27;98864;-81
2023/10/09 03:24:31;;;;;;;11.15;3.15;;;;;;;15.75;72.05;101558.84;5055599;27;97126;-81
2023/10/09 03:26:58;;;;;;;7.18;2.53;;;;;;;15.36;73.67;101550.75;5057314;27;96956;-81
2023/10/09 03:29:24;;;;;;;7.35;2.72;;;;;;;15.61;72.92;101547.06;5056386;27;99467;-80
2023/10/09 03:31:51;;;;;;;5.22;2.50;;;;;;;15.58;72.76;101544.53;5055815;27;101693;-80
2023/10/09 03:34:19;;;;;;;4.13;2.15;;;;;;;15.65;71.63;101543.31;5057264;27;97064;-79
2023/10/09 03:36:47;;;;;;;3.45;2.30;;;;;;;15.56;72.25;101533.09;5055245;27;97737;-80
2023/10/09 03:39:24;;;;;;;5.30;2.33;;;;;;;15.58;71.77;101524.09;5055670;27;101555;-80
2023/10/09 03:41:51;;;;;;;6.07;3.10;;;;;;;15.60;72.25;101518.69;5058121;27;100749;-80
2023/10/09 03:44:18;;;;;;;6.15;2.60;;;;;;;15.57;72.91;101509.03;5057548;27;96784;-80
2023/10/09 03:46:45;;;;;;;9.23;2.50;;;;;;;15.57;72.48;101495.72;5057392;27;97129;-80
2023/10/09 03:49:13;;;;;;;5.47;2.25;;;;;;;15.61;73.16;101491.13;5058402;27;98982;-80
2023/10/09 03:51:42;;;;;;;6.03;2.95;;;;;;;15.55;73.33;101465.63;5055737;27;99352;-80
2023/10/09 03:54:08;;;;;;;6.15;2.58;;;;;;;15.31;73.76;101475.53;5052131;27;96615;-80
2023/10/09 03:56:35;;;;;;;6.38;2.80;;;;;;;15.56;72.71;101471.84;5052291;27;96811;-80
2023/10/09 03:59:04;;;;;;;5.88;2.83;;;;;;;15.41;72.12;101479.53;5052746;27;98198;-80
2023/10/09 04:01:37;;;;;;;10.25;2.72;;;;;;;15.47;72.36;101489.91;5052278;27;98920;-80
2023/10/09 04:04:06;;;;;;;8.10;2.35;;;;;;;15.82;71.21;101483.00;5050715;27;96947;-80
2023/10/09 04:06:33;;;;;;;4.63;2.20;;;;;;;15.91;70.42;101495.06;5050772;27;96842;-79
2023/10/09 04:09:13;;;;;;;6.78;2.20;;;;;;;16.00;70.53;101507.97;5051133;27;98996;-80
2023/10/09 04:11:43;;;;;;;6.15;2.30;;;;;;;16.13;70.21;101516.28;5055501;27;97514;-80
2023/10/09 04:14:14;;;;;;;7.90;2.53;;;;;;;16.12;70.40;101526.06;5057199;27;96751;-80
2023/10/09 04:16:51;;;;;;;7.53;2.53;;;;;;;16.21;70.21;101522.97;5050135;27;96850;-81
2023/10/09 04:19:22;;;;;;;7.30;2.55;;;;;;;16.47;69.27;101520.91;5053537;27;99156;-80
2023/10/09 04:21:48;;;;;;;6.97;3.22;;;;;;;16.41;69.35;101507.84;5047432;27;101244;-80
2023/10/09 04:24:25;;;;;;;4.82;2.45;;;;;;;16.32;69.45;101501.16;5049665;27;96803;-81
2023/10/09 04:26:56;;;;;;;4.30;2.10;;;;;;;16.32;69.48;101487.81;5047317;27;97070;-81
2023/10/09 04:29:38;;;;;;;6.35;2.15;;;;;;;16.08;70.63;101496.97;5054059;27;99438;-81
2023/10/09 04:32:07;;;;;;;4.38;2.30;;;;;;;16.29;69.48;101478.13;5051299;27;99734;-80
2023/10/09 04:34:35;;;;;;;6.30;2.55;;;;;;;16.24;69.78;101482.84;5049190;27;97501;-81
2023/10/09 04:37:19;;;;;;;3.97;2.00;;;;;;;16.07;70.86;101496.09;5052056;27;98880;-81
2023/10/09 04:39:47;;;;;;;4.68;2.40;;;;;;;15.94;70.74;101500.28;5052202;27;99241;-81
2023/10/09 04:42:26;;;;;;;4.43;2.40;;;;;;;15.81;71.19;101499.09;5051289;27;99677;-81
2023/10/09 04:47:38;;;;;;;3.95;2.50;;;;;;;15.90;71.29;101501.31;5050555;27;97886;-80
2023/10/09 04:50:11;;;;;;;6.40;2.50;;;;;;;16.06;70.39;101491.69;5050766;27;99126;-80
2023/10/09 04:52:52;;;;;;;7.50;3.05;;;;;;;16.16;69.54;101495.66;5046525;27;101675;-80
2023/10/09 04:55:24;;;;;;;4.40;3.20;;;;;;;16.31;70.08;101486.94;5046525;27;97047;-80
2023/10/09 04:58:08;;;;;;;4.13;2.17;;;;;;;16.30;69.98;101487.88;5051126;27;96803;-81
2023/10/09 05:00:55;;;;;;;4.07;2.47;;;;;;;16.16;69.74;101479.66;5045790;27;98998;-81
2023/10/09 05:03:28;;;;;;;4.18;2.38;;;;;;;16.25;69.18;101471.25;5049549;27;99182;-79
2023/10/09 05:06:20;;;;;;;5.00;2.70;;;;;;;16.20;69.71;101472.41;5047527;27;97094;-79
2023/10/09 05:08:47;;;;;;;7.30;2.90;;;;;;;16.14;69.89;101465.56;5045513;27;96782;-79
2023/10/09 05:11:34;;;;;;;3.97;2.30;;;;;;;16.14;69.70;101459.34;5050439;27;99175;-80
2023/10/09 05:14:11;;;;;;;6.88;3.20;;;;;;;15.77;71.52;101465.50;5049531;27;97681;-80
2023/10/09 05:16:47;;;;;;;5.95;2.78;;;;;;;15.90;70.27;101470.22;5046087;27;97285;-82
2023/10/09 05:19:28;;;;;;;4.97;2.80;;;;;;;15.81;70.27;101464.47;5045896;27;96969;-80
2023/10/09 05:21:58;;;;;;;3.78;2.75;;;;;;;15.92;70.35;101451.50;5049951;27;99766;-79
2023/10/09 05:24:27;;;;;;;3.78;2.22;;;;;;;15.48;71.66;101459.69;5050808;27;98101;-80
2023/10/09 05:27:15;;;;;;;4.03;2.78;;;;;;;15.73;70.86;101458.59;5049160;27;97283;-80
2023/10/09 05:29:59;;;;;;;3.55;2.40;;;;;;;15.93;70.01;101454.09;5045364;27;96952;-79
2023/10/09 05:32:29;;;;;;;8.63;2.90;;;;;;;15.84;70.52;101464.28;5044171;27;98875;-79
2023/10/09 05:35:15;;;;;;;5.15;2.78;;;;;;;16.15;69.37;101461.94;5041712;27;99130;-77
2023/10/09 05:37:43;;;;;;;4.80;3.15;;;;;;;16.27;68.55;101461.38;5044786;27;96839;-79
2023/10/09 05:40:22;;;;;;;5.22;2.78;;;;;;;16.41;68.69;101457.19;5048087;27;97261;-79
2023/10/09 05:42:59;;;;;;;5.25;2.95;;;;;;;16.12;69.87;101451.41;5044571;27;98720;-79
2023/10/09 05:54:11;;;;;;;6.47;3.20;;;;;;;15.94;70.47;101468.28;5043603;27;97469;-78
2023/10/09 06:04:49;;;;;;;6.93;3.35;;;;;;;16.28;68.41;101465.75;5051068;27;100035;-78
2023/10/09 06:07:23;;;;;;;4.75;2.55;;;;;;;16.25;69.10;101457.91;5047363;27;100030;-77
2023/10/09 06:09:53;;;;;;;6.85;3.15;;;;;;;16.22;69.15;101463.38;5045230;27;96775;-78
2023/10/09 06:12:49;;;;;;;9.38;2.38;;;;;;;16.31;68.81;101460.28;5048570;27;97213;-79
2023/10/09 06:15:30;;;;;;;8.07;2.90;;;;;;;16.17;69.71;101465.41;5046935;27;98881;-79
2023/10/09 06:18:22;;;;;;;6.78;2.63;;;;;;;16.37;68.52;101467.09;5044487;27;99728;-80
2023/10/09 06:21:06;;;;;;;3.20;2.40;;;;;;;16.14;69.68;101456.69;5045633;27;97078;-79
2023/10/09 06:26:24;;;;;;;7.50;2.72;;;;;;;16.02;69.60;101442.13;5049198;27;98437;-77
2023/10/09 06:29:13;;;;;;;6.43;2.65;;;;;;;15.86;70.34;101443.78;5046545;27;98936;-77
2023/10/09 06:34:20;;;;;;;4.90;2.83;;;;;;;16.22;70.21;101444.69;5046987;27;98353;-78
2023/10/09 06:36:52;;;;;;;6.65;2.53;;;;;;;16.09;69.18;101443.56;5039298;27;99322;-78
2023/10/09 06:42:09;;;;;;;6.95;3.45;;;;;;;16.07;70.04;101442.78;5046672;27;98594;-77
2023/10/09 06:47:18;;;;;;;5.32;2.92;;;;;;;15.96;69.92;101442.41;5045436;27;98936;-78
2023/10/09 06:50:12;;;;;;;5.40;2.60;;;;;;;16.32;69.19;101445.13;5045869;27;101418;-78
2023/10/09 06:52:57;;;;;;;8.50;2.70;;;;;;;16.44;67.54;101433.88;5035820;27;97999;-77
2023/10/09 06:55:19;;;;;;;4.90;2.53;;;;;;;16.09;68.39;101424.91;5041327;27;97094;-77
2023/10/09 06:57:48;;;;;;;7.65;2.78;;;;;;;16.20;68.61;101421.72;5044829;27;98902;-79
2023/10/09 07:02:58;;;;;;;12.07;2.55;;;;;;;16.42;68.10;101416.19;5041583;27;98689;-78
2023/10/09 07:05:37;;;;;;;5.57;2.40;;;;;;;16.58;67.03;101412.72;5046741;27;98724;-78
2023/10/09 07:08:28;;;;;;;14.95;3.85;;;;;;;16.41;67.26;101419.84;5046082;27;100151;-78
2023/10/09 07:11:20;;;;;;;33.20;5.77;;;;;;;16.65;67.49;101424.84;5047468;27;98756;-78
2023/10/09 07:13:38;;;;;;;7.53;2.60;;;;;;;16.54;66.96;101423.63;5041790;27;97385;-78
2023/10/09 07:18:54;;;;;;;3.95;2.45;;;;;;;16.62;66.11;101424.13;5046631;27;98445;-78
2023/10/09 07:21:27;;;;;;;8.55;2.67;;;;;;;16.42;66.13;101417.06;5048061;27;98999;-77
2023/10/09 07:23:57;;;;;;;6.07;2.80;;;;;;;16.50;66.55;101417.56;5045239;27;96857;-78
2023/10/09 07:26:36;;;;;;;4.85;2.88;;;;;;;16.35;67.15;101416.50;5040881;27;97464;-77
2023/10/09 07:29:16;;;;;;;7.50;2.47;;;;;;;16.35;67.40;101418.31;5035386;27;98969;-77
2023/10/09 07:31:45;;;;;;;5.07;2.63;;;;;;;16.46;65.81;101432.00;5031548;27;98658;-80
2023/10/09 07:36:57;;;;;;;5.95;3.05;;;;;;;16.31;66.82;101436.28;5044032;27;97275;-78
2023/10/09 07:39:24;;;;;;;4.63;2.50;;;;;;;16.27;66.52;101426.69;5030635;27;100530;-76
2023/10/09 07:41:56;;;;;;;4.97;2.50;;;;;;;16.18;66.56;101424.47;5042222;27;97956;-76
2023/10/09 07:44:36;;;;;;;18.80;3.95;;;;;;;16.45;66.48;101430.28;5040556;27;98967;-76
2023/10/09 07:47:19;;;;;;;7.68;2.72;;;;;;;16.49;66.12;101434.50;5046865;27;98181;-77
2023/10/09 07:49:53;;;;;;;37.45;5.88;;;;;;;16.28;66.90;101438.19;5037616;27;99018;-78
2023/10/09 07:52:26;;;;;;;12.20;3.45;;;;;;;16.23;67.54;101438.44;5047182;27;99104;-80
2023/10/09 07:55:01;;;;;;;8.25;3.40;;;;;;;16.42;67.16;101437.53;5039629;27;96890;-78
2023/10/09 07:57:38;;;;;;;6.00;3.70;;;;;;;16.55;66.73;101439.53;5045913;27;96911;-77
2023/10/09 08:00:35;;;;;;;5.57;2.95;;;;;;;16.91;65.61;101450.22;5047471;27;100616;-78
2023/10/09 08:03:00;;;;;;;6.60;2.97;;;;;;;16.78;65.14;101458.91;5035143;27;98609;-79
2023/10/09 08:05:33;;;;;;;5.57;3.45;;;;;;;16.54;65.89;101464.47;5047988;27;97578;-78
2023/10/09 08:08:39;;;;;;;6.03;3.30;;;;;;;16.62;65.60;101465.00;5047025;27;97020;-78
2023/10/09 08:13:56;;;;;;;7.05;3.05;;;;;;;17.26;64.00;101474.28;5041855;27;97260;-76
2023/10/09 08:16:24;;;;;;;5.30;3.45;;;;;;;17.14;63.29;101489.97;5043496;27;97820;-76
2023/10/09 08:18:51;;;;;;;5.50;2.92;;;;;;;17.08;63.23;101484.94;5047313;27;96901;-78
2023/10/09 08:21:41;;;;;;;6.00;3.10;;;;;;;17.00;63.81;101484.44;5040590;27;98736;-77
2023/10/09 08:24:35;;;;;;;5.05;3.47;;;;;;;17.05;64.01;101482.44;5043868;27;98286;-77
2023/10/09 08:29:38;;;;;;;7.97;2.72;;;;;;;17.10;63.31;101477.72;5042952;27;97292;-79
2023/10/09 08:32:18;;;;;;;9.40;2.88;;;;;;;16.87;64.50;101483.34;5046175;27;99237;-79
2023/10/09 08:34:49;;;;;;;7.18;3.80;;;;;;;17.23;63.37;101480.63;5045155;27;99326;-77
2023/10/09 08:37:17;;;;;;;7.07;3.80;;;;;;;17.25;64.11;101478.75;5047738;27;98882;-78
2023/10/09 08:42:54;;;;;;;7.00;3.50;;;;;;;17.20;63.81;101470.06;4915108;28;97876;-78
2023/10/09 08:45:25;;;;;;;8.13;3.38;;;;;;;16.94;64.20;101474.06;5037192;27;99082;-78
2023/10/09 08:47:55;;;;;;;7.82;2.58;;;;;;;17.00;63.98;101476.44;5050696;27;97231;-79
2023/10/09 08:50:21;;;;;;;6.53;3.15;;;;;;;17.33;63.25;101471.16;5043860;27;97510;-78
2023/10/09 08:52:51;;;;;;;7.30;3.40;;;;;;;17.12;64.10;101472.31;5043490;27;98871;-77
2023/10/09 08:55:17;;;;;;;6.75;2.95;;;;;;;17.20;63.76;101458.56;5044059;27;100338;-79
2023/10/09 08:57:46;;;;;;;9.80;3.15;;;;;;;17.13;63.70;101458.84;5041064;27;97961;-79
2023/10/09 09:00:23;;;;;;;11.77;3.47;;;;;;;17.23;64.70;101461.91;5046045;27;97512;-78
2023/10/09 09:02:53;;;;;;;5.88;2.85;;;;;;;17.12;64.26;101451.81;5047669;27;99890;-78
2023/10/09 09:05:20;;;;;;;5.57;3.15;;;;;;;17.14;63.98;101449.91;5043574;27;98880;-79
2023/10/09 09:07:47;;;;;;;9.90;4.78;;;;;;;17.07;64.02;101455.63;5049559;27;97544;-77
2023/10/09 09:10:21;;;;;;;9.25;3.40;;;;;;;17.50;62.60;101448.94;5048141;27;97257;-78
2023/10/09 09:12:53;;;;;;;6.68;3.35;;;;;;;17.44;62.86;101454.59;5048864;27;98780;-79
2023/10/09 09:15:21;;;;;;;5.70;2.67;;;;;;;17.24;63.05;101454.78;5048309;27;99219;-78
2023/10/09 09:17:48;;;;;;;9.00;3.10;;;;;;;17.41;62.73;101441.38;5042839;27;97425;-78
2023/10/09 09:20:23;;;;;;;5.43;2.83;;;;;;;17.35;62.09;101449.72;5046064;27;97232;-81
2023/10/09 09:22:56;;;;;;;5.47;3.05;;;;;;;17.02;62.18;101449.66;5049901;27;98323;-80
2023/10/09 09:25:25;;;;;;;6.40;3.20;;;;;;;17.01;62.16;101446.13;5051049;27;100831;-77
2023/10/09 09:27:54;;;;;;;11.55;3.95;;;;;;;17.34;61.85;101437.31;5051206;27;97145;-79
2023/10/09 09:30:25;;;;;;;8.20;2.97;;;;;;;17.33;62.12;101432.91;5045599;27;97595;-77
2023/10/09 09:33:15;;;;;;;8.02;2.97;;;;;;;17.44;60.95;101430.56;5047906;27;99724;-78
2023/10/09 09:35:39;;;;;;;;;;;;;;;17.39;61.84;101436.13;5045344;27;98615;-78
2023/10/09 09:38:07;;;;;;;4.43;2.60;;;;;;;17.69;60.00;101438.16;5046786;27;97357;-79
2023/10/09 09:40:41;;;;;;;29.42;4.72;;;;;;;17.52;60.66;101437.19;5042931;27;96902;-81
2023/10/09 09:43:17;;;;;;;12.30;3.63;;;;;;;17.59;60.61;101452.94;5049534;27;99474;-80
2023/10/09 09:45:48;;;;;;;9.52;3.50;;;;;;;17.46;61.37;101456.22;5047645;27;98765;-80
2023/10/09 09:48:16;;;;;;;5.47;2.63;;;;;;;17.24;61.50;101463.66;5044933;27;96807;-80
2023/10/09 09:50:45;;;;;;;4.80;3.05;;;;;;;17.19;61.26;101463.03;5044841;27;96813;-80
2023/10/09 09:53:16;;;;;;;5.25;2.95;;;;;;;17.29;61.78;101464.28;5042099;27;97735;-79
2023/10/09 09:55:51;;;;;;;6.18;3.35;;;;;;;17.04;62.36;101472.69;5050310;27;99038;-80
2023/10/09 09:58:20;;;;;;;5.37;3.07;;;;;;;17.03;62.46;101476.28;5046650;27;97193;-81
2023/10/09 10:00:52;;;;;;;5.93;2.97;;;;;;;17.07;62.77;101479.66;5045916;27;96927;-80
2023/10/09 10:03:22;;;;;;;6.43;3.20;;;;;;;17.22;62.27;101465.53;5044807;27;101354;-80
2023/10/09 10:05:52;;;;;;;7.10;3.63;;;;;;;17.19;62.27;101457.69;5041922;27;98650;-78
2023/10/09 10:08:21;;;;;;;7.00;3.20;;;;;;;17.04;62.99;101456.66;5045115;27;97083;-78
2023/10/09 10:10:50;;;;;;;9.10;3.80;;;;;;;17.02;63.55;101449.66;5043241;27;96787;-78
2023/10/09 10:13:23;;;;;;;6.10;3.40;;;;;;;17.04;63.18;101459.34;5048483;27;101846;-82
2023/10/09 10:16:19;;;;;;;6.88;3.63;;;;;;;17.26;62.66;101453.75;5042138;27;101343;-80
2023/10/09 10:19:21;;;;;;;8.98;3.90;;;;;;;17.25;62.79;101452.03;5047034;27;97145;-79
2023/10/09 10:21:49;;;;;;;6.55;4.00;;;;;;;17.23;61.88;101450.38;5048393;27;96686;-80
2023/10/09 10:24:52;;;;;;;8.00;3.78;;;;;;;17.23;62.72;101450.38;5047843;27;100773;-79
2023/10/09 10:27:27;;;;;;;6.18;3.50;;;;;;;16.99;64.51;101455.19;5047588;27;98082;-78
2023/10/09 10:30:31;;;;;;;4.50;3.83;;;;;;;16.99;63.63;101449.84;5046808;27;97066;-79
2023/10/09 10:33:09;;;;;;;6.45;4.13;;;;;;;17.37;63.48;101450.53;5049250;27;97854;-79
2023/10/09 10:35:44;;;;;;;7.45;4.30;;;;;;;17.25;63.71;101440.47;5047676;27;97937;-80
2023/10/09 10:38:34;;;;;;;6.60;4.43;;;;;;;17.52;62.58;101452.41;5043546;27;96906;-80
2023/10/09 10:41:16;;;;;;;6.28;4.22;;;;;;;17.42;62.50;101438.66;5043768;27;97920;-78
2023/10/09 10:44:00;;;;;;;7.85;4.20;;;;;;;17.21;63.05;101450.44;5049257;27;97041;-80
2023/10/09 10:46:42;;;;;;;9.73;4.10;;;;;;;17.54;62.62;101439.78;5046044;27;98995;-79
2023/10/09 10:49:16;;;;;;;5.45;3.72;;;;;;;17.58;62.54;101433.34;5044040;27;98790;-80
2023/10/09 10:51:48;;;;;;;8.07;4.70;;;;;;;17.70;62.31;101432.72;5043360;27;96788;-79
2023/10/09 10:54:45;;;;;;;7.10;4.55;;;;;;;18.01;61.12;101436.38;5040086;27;97251;-77
2023/10/09 10:57:28;;;;;;;;;;;;;;;18.09;59.88;101432.34;5045032;27;98887;-78
2023/10/09 11:00:12;;;;;;;5.53;4.20;;;;;;;17.77;61.18;101428.78;5046221;27;99790;-78
2023/10/09 11:02:40;;;;;;;8.00;4.50;;;;;;;17.76;62.21;101435.06;5047401;27;96941;-79
2023/10/09 11:05:23;;;;;;;5.32;4.00;;;;;;;17.93;60.24;101434.13;5040165;27;97398;-78
2023/10/09 11:07:52;;;;;;;10.88;4.20;;;;;;;17.96;59.78;101430.44;5040275;27;99869;-79
2023/10/09 11:10:31;;;;;;;5.90;4.68;;;;;;;18.00;60.16;101431.97;5037009;27;99372;-78
2023/10/09 11:15:46;;;;;;;6.57;4.30;;;;;;;18.06;59.66;101429.81;5048806;27;96811;-78
2023/10/09 11:18:19;;;;;;;8.98;4.70;;;;;;;18.53;58.73;101424.47;5045893;27;99779;-78
2023/10/09 11:20:56;;;;;;;4.50;3.58;;;;;;;18.89;55.93;101409.91;5046687;27;98332;-78
2023/10/09 11:23:29;;;;;;;8.30;4.00;;;;;;;18.99;56.17;101409.25;5047109;27;96769;-79
2023/10/09 11:26:20;;;;;;;10.77;4.85;;;;;;;18.69;55.75;101417.31;5039834;27;98333;-79
2023/10/09 11:28:48;;;;;;;6.78;4.00;;;;;;;18.45;56.80;101416.00;5042760;27;97685;-79
2023/10/09 11:31:16;;;;;;;10.70;5.15;;;;;;;18.47;57.60;101415.91;5048205;27;99093;-78
2023/10/09 11:33:47;;;;;;;6.88;4.68;;;;;;;18.30;57.28;101396.38;5055847;27;97450;-80
2023/10/09 11:36:13;;;;;;;7.65;4.15;;;;;;;18.30;57.56;101392.81;5048048;27;96872;-80
2023/10/09 11:38:39;;;;;;;9.07;5.03;;;;;;;18.16;58.59;101395.41;5047411;27;101316;-79
2023/10/09 11:41:18;;;;;;;;;;;;;;;18.38;57.59;101403.91;5052344;27;98980;-78
2023/10/09 11:43:51;;;;;;;9.65;4.60;;;;;;;18.77;57.46;101410.63;5045802;27;96759;-78
2023/10/09 11:46:38;;;;;;;8.05;4.68;;;;;;;18.77;56.65;101398.13;5051298;27;100442;-79
2023/10/09 11:49:25;;;;;;;;;;;;;;;19.06;55.73;101380.28;5037950;27;98414;-78
2023/10/09 11:52:33;;;;;;;6.55;4.40;;;;;;;19.29;54.82;101390.47;5052728;27;98089;-79
2023/10/09 11:55:48;;;;;;;10.02;4.40;;;;;;;19.21;54.98;101390.06;5047771;27;96822;-79
2023/10/09 11:58:04;;;;;;;5.70;4.13;;;;;;;19.40;53.80;101374.59;5033906;27;97240;-78
2023/10/09 12:00:42;;;;;;;6.85;3.85;;;;;;;19.18;53.21;101374.19;5043746;27;99839;-79
2023/10/09 12:03:10;;;;;;;7.05;4.35;;;;;;;19.07;54.26;101376.66;5047526;27;98780;-79
2023/10/09 12:05:37;;;;;;;8.55;4.80;;;;;;;18.86;55.48;101364.56;5045371;27;97253;-80
2023/10/09 12:08:08;;;;;;;8.10;5.00;;;;;;;18.40;57.20;101366.38;5047660;27;97445;-80
2023/10/09 12:10:38;;;;;;;9.73;5.57;;;;;;;18.05;58.80;101371.94;5043989;27;99525;-80
2023/10/09 12:13:04;;;;;;;7.88;5.28;;;;;;;18.20;58.82;101378.22;5049746;27;97628;-78
2023/10/09 12:15:37;;;;;;;9.18;5.20;;;;;;;18.40;58.39;101369.91;5048896;27;98537;-79
2023/10/09 12:18:18;;;;;;;7.30;5.53;;;;;;;18.49;58.19;101380.09;5047642;27;97299;-79
2023/10/09 12:20:50;;;;;;;8.40;5.25;;;;;;;18.60;56.84;101382.16;5047111;27;99034;-78
2023/10/09 12:23:17;;;;;;;7.03;5.32;;;;;;;18.70;56.55;101394.06;5047067;27;98852;-79
2023/10/09 12:25:45;;;;;;;10.32;5.95;;;;;;;18.91;56.57;101398.13;5049359;27;96802;-79
2023/10/09 12:28:13;;;;;;;8.70;5.70;;;;;;;18.36;57.65;101391.59;5044626;27;97019;-79
2023/10/09 12:30:39;;;;;;;7.43;5.43;;;;;;;18.19;57.62;101396.09;5043367;27;99100;-79
2023/10/09 12:33:07;;;;;;;8.00;5.18;;;;;;;18.23;57.33;101388.78;5046652;27;101091;-77
2023/10/09 12:35:38;;;;;;;9.05;5.00;;;;;;;18.41;57.02;101377.00;5044454;27;96911;-78
2023/10/09 12:38:08;;;;;;;9.93;5.47;;;;;;;18.56;56.81;101381.50;5047301;27;97229;-77
2023/10/09 12:40:47;;;;;;;11.80;5.25;;;;;;;18.57;56.70;101380.56;5044557;27;97762;-79
2023/10/09 12:43:16;;;;;;;8.45;5.28;;;;;;;18.59;56.61;101378.63;5049779;27;98610;-78